Time;durP1;ratioP1;P1;durP2;ratioP2;P2;SDS_P1;SDS_P2;PMS_P1;PMS_P2;Temp;Humidity;BMP_temperature;BMP_pressure;BME280_temperature;BME280_humidity;BME280_pressure;Samples;Min_cycle;Max_cycle;Signal;HPM_P1;HPM_P2
2021/05/25 00:01:07;;;;;;;2.10;0.43;;;17.10;61.80;;;;;;5013070;28;20435;-61
2021/05/25 00:03:32;;;;;;;0.75;0.43;;;16.90;61.70;;;;;;5011654;28;20065;-61
2021/05/25 00:05:58;;;;;;;2.10;0.63;;;17.10;61.80;;;;;;5013387;28;20109;-61
2021/05/25 00:08:23;;;;;;;1.35;0.40;;;17.00;61.70;;;;;;5011855;28;20022;-61
2021/05/25 00:10:49;;;;;;;0.75;0.40;;;17.10;61.80;;;;;;5013386;28;20037;-61
2021/05/25 00:13:15;;;;;;;1.00;0.47;;;17.10;61.80;;;;;;5013025;28;20385;-61
2021/05/25 00:15:40;;;;;;;0.77;0.57;;;17.10;61.80;;;;;;5012910;28;20069;-61
2021/05/25 00:18:06;;;;;;;0.75;0.40;;;16.90;61.70;;;;;;5012932;28;20038;-61
2021/05/25 00:20:33;;;;;;;1.15;0.70;;;17.00;61.80;;;;;;5012921;28;20437;-61
2021/05/25 00:22:59;;;;;;;1.55;0.50;;;17.00;61.70;;;;;;4995241;28;20503;-62
2021/05/25 00:25:24;;;;;;;1.77;0.35;;;17.40;62.00;;;;;;5013232;28;20026;-61
2021/05/25 00:27:52;;;;;;;2.33;0.47;;;17.40;62.00;;;;;;5012864;28;20476;-61
2021/05/25 00:30:20;;;;;;;0.70;0.30;;;17.00;61.70;;;;;;5012759;28;20109;-61
2021/05/25 00:32:46;;;;;;;0.50;0.40;;;17.10;61.80;;;;;;5012947;28;20057;-61
2021/05/25 00:35:13;;;;;;;1.05;0.60;;;16.90;61.70;;;;;;5011409;28;20018;-61
2021/05/25 00:37:38;;;;;;;1.27;0.70;;;17.00;61.70;;;;;;5012743;28;20524;-61
2021/05/25 00:40:06;;;;;;;1.15;0.45;;;16.80;61.70;;;;;;5012984;28;20114;-61
2021/05/25 00:42:32;;;;;;;1.08;0.43;;;17.00;61.70;;;;;;5011394;28;20056;-62
2021/05/25 00:44:58;;;;;;;0.82;0.45;;;16.90;61.70;;;;;;5012937;28;20026;-62
2021/05/25 00:47:31;;;;;;;0.32;0.30;;;17.00;61.70;;;;;;5012698;28;20032;-62
2021/05/25 00:50:15;;;;;;;1.77;0.50;;;17.00;61.70;;;;;;5012664;28;20036;-62
2021/05/25 00:52:51;;;;;;;0.50;0.40;;;17.20;87.10;;;;;;5012957;28;20022;-62
2021/05/25 00:55:20;;;;;;;1.75;0.50;;;17.00;61.70;;;;;;5012485;28;20507;-62
2021/05/25 00:57:47;;;;;;;1.15;0.40;;;17.00;61.70;;;;;;5012782;28;20285;-62
2021/05/25 01:00:14;;;;;;;0.47;0.40;;;17.40;61.90;;;;;;5012707;28;20014;-62
2021/05/25 01:02:40;;;;;;;1.73;0.55;;;17.00;61.80;;;;;;5012500;28;20033;-62
2021/05/25 01:05:10;;;;;;;0.40;0.40;;;17.00;61.70;;;;;;5012381;28;20400;-62
2021/05/25 01:07:36;;;;;;;0.40;0.40;;;17.00;61.70;;;;;;5012675;28;20029;-62
2021/05/25 01:10:03;;;;;;;0.82;0.47;;;16.90;61.70;;;;;;5012766;28;20491;-62
2021/05/25 01:12:32;;;;;;;0.93;0.50;;;16.90;61.70;;;;;;5012382;28;20025;-62
2021/05/25 01:15:03;;;;;;;0.50;0.30;;;16.70;61.60;;;;;;5013176;28;20033;-62
2021/05/25 01:17:29;;;;;;;1.90;0.40;;;16.90;61.70;;;;;;5016173;28;20034;-62
2021/05/25 01:19:55;;;;;;;0.85;0.43;;;16.90;61.80;;;;;;5016332;28;20025;-62
2021/05/25 01:22:20;;;;;;;1.27;0.40;;;17.40;62.00;;;;;;5014764;28;20025;-62
2021/05/25 01:24:46;;;;;;;1.88;0.50;;;17.00;61.80;;;;;;5016226;28;20033;-62
2021/05/25 01:27:12;;;;;;;0.55;0.30;;;16.80;61.60;;;;;;5016135;28;20104;-62
2021/05/25 01:29:38;;;;;;;0.50;0.32;;;16.90;62.40;;;;;;5015933;28;20493;-62
2021/05/25 01:32:04;;;;;;;0.95;0.57;;;17.20;61.90;;;;;;5015839;28;20448;-62
2021/05/25 01:34:30;;;;;;;1.10;0.40;;;16.80;61.60;;;;;;5015701;28;20049;-62
2021/05/25 01:36:56;;;;;;;0.50;0.35;;;16.80;61.70;;;;;;5014772;28;20030;-62
2021/05/25 01:39:22;;;;;;;0.40;0.40;;;16.90;61.70;;;;;;5015975;28;20025;-62
2021/05/25 01:41:52;;;;;;;1.15;0.40;;;17.10;61.80;;;;;;5014527;28;20066;-62
2021/05/25 01:44:17;;;;;;;1.40;0.50;;;16.90;61.70;;;;;;5015976;28;20030;-62
2021/05/25 01:46:44;;;;;;;1.10;0.40;;;17.10;87.40;;;;;;5015590;28;20111;-62
2021/05/25 01:49:10;;;;;;;0.73;0.30;;;16.80;61.60;;;;;;5015780;28;20072;-62
2021/05/25 01:51:36;;;;;;;1.55;0.55;;;16.60;61.60;;;;;;5015462;28;20109;-62
2021/05/25 01:54:02;;;;;;;1.38;0.50;;;16.70;61.60;;;;;;5014132;28;20025;-62
2021/05/25 01:56:27;;;;;;;0.60;0.38;;;16.80;61.80;;;;;;5015655;28;20030;-62
2021/05/25 01:58:53;;;;;;;0.80;0.40;;;16.80;86.80;;;;;;5015507;28;20022;-62
2021/05/25 02:01:19;;;;;;;2.22;0.75;;;16.80;61.70;;;;;;5015310;28;20022;-62
2021/05/25 02:03:44;;;;;;;0.77;0.43;;;16.80;61.70;;;;;;5015379;28;20112;-62
2021/05/25 02:06:11;;;;;;;1.00;0.40;;;16.60;61.50;;;;;;5015561;28;20387;-61
2021/05/25 02:08:37;;;;;;;0.63;0.45;;;16.80;61.60;;;;;;5015215;28;20096;-62
2021/05/25 02:11:04;;;;;;;1.20;0.40;;;16.50;61.40;;;;;;5015424;28;20049;-62
2021/05/25 02:13:35;;;;;;;1.38;0.38;;;16.60;61.50;;;;;;5013824;28;20080;-62
2021/05/25 02:16:09;;;;;;;0.45;0.30;;;16.80;61.60;;;;;;5014971;28;20072;-62
2021/05/25 02:18:45;;;;;;;1.02;0.40;;;16.80;61.60;;;;;;5015318;28;20025;-62
2021/05/25 02:21:21;;;;;;;0.75;0.50;;;16.80;61.80;;;;;;5014943;28;20057;-62
2021/05/25 02:23:48;;;;;;;0.93;0.45;;;16.80;61.70;;;;;;5015480;28;20092;-62
2021/05/25 02:26:14;;;;;;;1.55;0.50;;;16.90;61.80;;;;;;5013501;28;20105;-62
2021/05/25 02:28:40;;;;;;;0.80;0.30;;;16.60;61.50;;;;;;5014908;28;20046;-62
2021/05/25 02:31:06;;;;;;;0.80;0.45;;;16.80;61.70;;;;;;5014777;28;20033;-62
2021/05/25 02:33:32;;;;;;;1.30;0.47;;;16.50;61.50;;;;;;5014953;28;20030;-62
2021/05/25 02:35:59;;;;;;;1.98;0.40;;;16.70;61.60;;;;;;5014639;28;20033;-62
2021/05/25 02:38:26;;;;;;;0.65;0.40;;;16.70;61.60;;;;;;5014622;28;20018;-62
2021/05/25 02:40:54;;;;;;;0.95;0.50;;;16.70;61.70;;;;;;5014571;28;20041;-62
2021/05/25 02:43:23;;;;;;;1.42;0.40;;;16.50;61.50;;;;;;5014615;28;20381;-62
2021/05/25 02:45:49;;;;;;;1.35;0.45;;;17.40;62.00;;;;;;5013544;28;20048;-62
2021/05/25 02:48:16;;;;;;;0.55;0.30;;;16.70;61.70;;;;;;5014762;28;20377;-62
2021/05/25 02:50:42;;;;;;;0.90;0.50;;;16.50;61.50;;;;;;5014450;28;20029;-62
2021/05/25 02:53:09;;;;;;;0.65;0.40;;;16.70;61.60;;;;;;5014349;28;20026;-62
2021/05/25 02:55:36;;;;;;;1.02;0.40;;;16.70;61.70;;;;;;5013180;28;20029;-62
2021/05/25 02:58:04;;;;;;;0.52;0.40;;;16.70;61.70;;;;;;5014623;28;20113;-62
2021/05/25 03:00:38;;;;;;;1.20;0.47;;;16.50;61.50;;;;;;5014294;28;20018;-62
2021/05/25 03:03:05;;;;;;;1.50;0.70;;;16.70;61.70;;;;;;5014226;28;20026;-62
2021/05/25 03:05:31;;;;;;;0.63;0.40;;;16.70;61.60;;;;;;5014308;28;20037;-62
2021/05/25 03:07:58;;;;;;;1.40;0.68;;;16.70;61.70;;;;;;5014636;28;20113;-62
2021/05/25 03:10:29;;;;;;;2.80;0.40;;;16.80;61.70;;;;;;5014522;28;20053;-62
2021/05/25 03:12:55;;;;;;;0.38;0.38;;;16.70;61.70;;;;;;5014502;28;20032;-62
2021/05/25 03:15:25;;;;;;;0.68;0.40;;;16.70;61.70;;;;;;5014497;28;20021;-62
2021/05/25 03:17:50;;;;;;;0.70;0.40;;;16.70;61.70;;;;;;5014257;28;20022;-62
2021/05/25 03:20:17;;;;;;;0.30;0.30;;;16.70;61.80;;;;;;5014265;28;20515;-62
2021/05/25 03:22:43;;;;;;;1.27;0.52;;;16.70;61.70;;;;;;5014572;28;20084;-63
2021/05/25 03:25:10;;;;;;;0.80;0.32;;;16.60;61.60;;;;;;5014220;28;20021;-62
2021/05/25 03:27:36;;;;;;;0.70;0.40;;;16.60;61.70;;;;;;5014044;28;20029;-62
2021/05/25 03:30:06;;;;;;;1.35;0.63;;;16.60;61.70;;;;;;5013248;28;20022;-62
2021/05/25 03:32:31;;;;;;;0.85;0.30;;;16.60;61.60;;;;;;5012849;28;20063;-62
2021/05/25 03:34:57;;;;;;;1.27;0.50;;;16.60;61.70;;;;;;5014010;28;20037;-63
2021/05/25 03:37:23;;;;;;;0.80;0.38;;;16.60;61.70;;;;;;5012241;28;20062;-62
2021/05/25 03:39:48;;;;;;;2.65;0.50;;;16.40;61.70;;;;;;5014003;28;20472;-63
2021/05/25 03:42:15;;;;;;;0.82;0.40;;;16.60;61.80;;;;;;5013847;28;20468;-63
2021/05/25 03:44:40;;;;;;;0.85;0.40;;;16.60;61.70;;;;;;5012446;28;20120;-63
2021/05/25 03:47:06;;;;;;;0.60;0.50;;;16.40;61.60;;;;;;5013934;28;20065;-63
2021/05/25 03:49:31;;;;;;;0.80;0.40;;;16.60;61.70;;;;;;5012284;28;20033;-63
2021/05/25 03:51:57;;;;;;;0.65;0.43;;;16.60;61.70;;;;;;5012208;28;20109;-63
2021/05/25 03:54:34;;;;;;;0.70;0.30;;;16.60;61.70;;;;;;5013657;28;20030;-63
2021/05/25 03:57:08;;;;;;;1.48;0.50;;;16.60;61.70;;;;;;5013327;28;20112;-63
2021/05/25 03:59:33;;;;;;;0.77;0.35;;;16.50;61.70;;;;;;5011938;28;20026;-63
2021/05/25 04:01:59;;;;;;;0.77;0.30;;;17.10;62.00;;;;;;5013116;28;20022;-63
2021/05/25 04:04:25;;;;;;;0.63;0.32;;;16.40;61.60;;;;;;5011916;28;20041;-63
2021/05/25 04:06:51;;;;;;;0.70;0.30;;;16.50;61.70;;;;;;5011794;28;20025;-63
2021/05/25 04:09:16;;;;;;;1.10;0.47;;;16.50;61.70;;;;;;5013002;28;20029;-62
2021/05/25 04:11:42;;;;;;;0.35;0.30;;;16.50;61.70;;;;;;5013344;28;20481;-62
2021/05/25 04:14:07;;;;;;;1.02;0.38;;;16.50;61.20;;;;;;5011753;28;20026;-62
2021/05/25 04:16:33;;;;;;;2.47;0.57;;;16.50;61.80;;;;;;5012904;28;20497;-62
2021/05/25 04:18:59;;;;;;;2.88;0.30;;;16.60;61.80;;;;;;5012987;28;20022;-62
2021/05/25 04:21:25;;;;;;;2.15;0.50;;;16.50;61.80;;;;;;5011648;28;20029;-62
2021/05/25 04:23:51;;;;;;;0.80;0.60;;;16.90;62.00;;;;;;5013226;28;20030;-62
2021/05/25 04:26:17;;;;;;;1.33;0.50;;;16.40;61.70;;;;;;5012885;28;20389;-62
2021/05/25 04:28:42;;;;;;;2.47;0.40;;;16.50;61.90;;;;;;5011630;28;20026;-62
2021/05/25 04:31:08;;;;;;;0.63;0.28;;;16.60;61.90;;;;;;5013104;28;20034;-62
2021/05/25 04:33:34;;;;;;;1.00;0.40;;;16.60;61.80;;;;;;5012894;28;20024;-62
2021/05/25 04:36:01;;;;;;;1.27;0.60;;;16.30;61.70;;;;;;5012758;28;20030;-62
2021/05/25 04:38:27;;;;;;;1.02;0.50;;;16.30;61.60;;;;;;5012805;28;20560;-63
2021/05/25 04:40:52;;;;;;;1.08;0.50;;;16.30;61.70;;;;;;5011888;28;20058;-62
2021/05/25 04:43:18;;;;;;;0.82;0.30;;;16.30;61.70;;;;;;5012979;28;20022;-62
2021/05/25 04:45:44;;;;;;;0.90;0.40;;;16.50;61.80;;;;;;5012640;28;20080;-62
2021/05/25 04:48:10;;;;;;;0.93;0.40;;;16.30;61.70;;;;;;5012934;28;20092;-62
2021/05/25 04:50:37;;;;;;;0.65;0.40;;;16.50;61.80;;;;;;5014476;28;20380;-62
2021/05/25 04:53:03;;;;;;;0.47;0.30;;;16.40;61.80;;;;;;5016834;28;20033;-62
2021/05/25 04:55:28;;;;;;;0.45;0.38;;;16.20;61.70;;;;;;5016420;28;20018;-62
2021/05/25 04:57:54;;;;;;;1.33;0.30;;;16.50;61.80;;;;;;5015312;28;20121;-62
2021/05/25 05:00:25;;;;;;;2.08;0.50;;;16.50;61.90;;;;;;5016350;28;20022;-62
2021/05/25 05:02:51;;;;;;;1.23;0.40;;;16.50;61.80;;;;;;5016499;28;20029;-62
2021/05/25 05:05:17;;;;;;;0.57;0.40;;;16.50;61.80;;;;;;5015037;28;20109;-62
2021/05/25 05:07:44;;;;;;;0.90;0.35;;;16.50;61.80;;;;;;5015302;28;20112;-61
2021/05/25 05:10:10;;;;;;;0.47;0.38;;;16.50;61.90;;;;;;5016242;28;20383;-62
2021/05/25 05:12:36;;;;;;;0.60;0.45;;;16.50;61.90;;;;;;5016440;28;20030;-62
2021/05/25 05:15:04;;;;;;;0.50;0.30;;;16.50;62.00;;;;;;5014957;28;20412;-62
2021/05/25 05:17:29;;;;;;;1.27;0.40;;;16.50;61.90;;;;;;5016069;28;20061;-62
2021/05/25 05:19:55;;;;;;;0.38;0.38;;;16.50;62.60;;;;;;5016066;28;20103;-62
2021/05/25 05:22:21;;;;;;;1.05;0.40;;;16.40;61.90;;;;;;5016013;28;20053;-62
2021/05/25 05:24:48;;;;;;;0.82;0.40;;;16.50;62.00;;;;;;5014755;28;20022;-62
2021/05/25 05:27:14;;;;;;;1.30;0.55;;;;;;;;;;5015975;28;20400;-62
2021/05/25 05:29:39;;;;;;;1.13;0.35;;;16.50;61.60;;;;;;5016177;28;20060;-62
2021/05/25 05:32:06;;;;;;;1.15;0.22;;;16.60;62.20;;;;;;5016116;28;20018;-62
2021/05/25 05:34:32;;;;;;;1.02;0.30;;;16.60;62.20;;;;;;5016077;28;20025;-62
2021/05/25 05:36:58;;;;;;;0.52;0.45;;;16.50;62.10;;;;;;5015584;28;20030;-62
2021/05/25 05:39:23;;;;;;;1.55;0.50;;;16.60;62.10;;;;;;5014354;28;20052;-62
2021/05/25 05:41:49;;;;;;;0.68;0.30;;;16.50;62.00;;;;;;5014668;28;20024;-62
2021/05/25 05:44:14;;;;;;;1.17;0.45;;;16.40;62.00;;;;;;5014342;28;20080;-62
2021/05/25 05:46:40;;;;;;;1.50;0.40;;;16.30;61.90;;;;;;5014394;28;20100;-62
2021/05/25 05:49:06;;;;;;;1.77;0.40;;;16.80;62.20;;;;;;5015708;28;20101;-62
2021/05/25 05:51:32;;;;;;;2.72;0.43;;;16.50;61.90;;;;;;5015481;28;20106;-62
2021/05/25 05:53:58;;;;;;;0.65;0.40;;;16.60;61.80;;;;;;5015690;28;20026;-61
2021/05/25 05:56:24;;;;;;;0.70;0.30;;;16.60;61.90;;;;;;5015255;28;20042;-61
2021/05/25 05:58:50;;;;;;;1.33;0.50;;;17.20;62.30;;;;;;5015533;28;20045;-62
2021/05/25 06:01:16;;;;;;;1.55;0.45;;;16.20;61.80;;;;;;5014722;28;20018;-62
2021/05/25 06:03:43;;;;;;;1.38;0.40;;;16.40;61.90;;;;;;5015132;28;20041;-62
2021/05/25 06:06:10;;;;;;;0.77;0.30;;;16.60;62.00;;;;;;5013884;28;20060;-62
2021/05/25 06:08:36;;;;;;;3.03;0.45;;;16.60;62.10;;;;;;5015152;28;20030;-62
2021/05/25 06:11:01;;;;;;;2.30;0.50;;;16.60;62.20;;;;;;5015085;28;20487;-62
2021/05/25 06:13:27;;;;;;;1.00;0.40;;;16.40;62.30;;;;;;5013708;28;20025;-63
2021/05/25 06:15:56;;;;;;;1.92;0.45;;;16.60;62.40;;;;;;5014920;28;20030;-62
2021/05/25 06:18:22;;;;;;;2.47;0.52;;;16.30;87.60;;;;;;5014882;28;20069;-63
2021/05/25 06:20:47;;;;;;;1.38;0.65;;;16.50;62.50;;;;;;5014891;28;20022;-63
2021/05/25 06:23:13;;;;;;;1.88;0.50;;;16.30;62.30;;;;;;5014918;28;20053;-63
2021/05/25 06:25:40;;;;;;;1.80;0.60;;;16.80;62.70;;;;;;5014762;28;20472;-63
2021/05/25 06:28:06;;;;;;;1.88;0.47;;;16.70;62.80;;;;;;5014681;28;20045;-63
2021/05/25 06:30:32;;;;;;;4.32;0.60;;;16.70;62.90;;;;;;5014543;28;20025;-63
2021/05/25 06:32:58;;;;;;;2.03;0.40;;;16.60;62.90;;;;;;5014580;28;20018;-63
2021/05/25 06:35:24;;;;;;;1.67;0.85;;;16.60;63.30;;;;;;5014519;28;20055;-63
2021/05/25 06:37:50;;;;;;;3.80;0.80;;;16.60;89.00;;;;;;5013206;28;20033;-63
2021/05/25 06:40:16;;;;;;;2.17;0.60;;;16.40;63.80;;;;;;5014707;28;20026;-63
2021/05/25 06:42:42;;;;;;;1.10;0.57;;;16.60;63.80;;;;;;5014676;28;20021;-65
2021/05/25 06:45:09;;;;;;;1.33;0.50;;;16.60;63.80;;;;;;5014448;28;20022;-64
2021/05/25 06:47:35;;;;;;;1.65;0.40;;;16.60;63.80;;;;;;5014409;28;20029;-62
2021/05/25 06:50:01;;;;;;;1.42;0.52;;;16.60;63.80;;;;;;5014448;28;20066;-63
2021/05/25 06:52:26;;;;;;;1.67;0.70;;;16.80;63.90;;;;;;5014686;28;20483;-63
2021/05/25 06:54:52;;;;;;;5.25;0.90;;;16.40;63.70;;;;;;5014364;28;20026;-62
2021/05/25 06:57:18;;;;;;;1.30;0.50;;;16.60;63.90;;;;;;5014120;28;20025;-63
2021/05/25 06:59:43;;;;;;;2.60;0.40;;;16.60;63.80;;;;;;5014016;28;20487;-62
2021/05/25 07:02:09;;;;;;;0.88;0.50;;;16.60;63.80;;;;;;5014074;28;20037;-62
2021/05/25 07:04:35;;;;;;;1.30;0.50;;;16.40;63.60;;;;;;5012625;28;20112;-62
2021/05/25 07:07:00;;;;;;;2.45;0.70;;;16.60;63.70;;;;;;5014288;28;20088;-63
2021/05/25 07:09:26;;;;;;;0.73;0.40;;;16.40;63.60;;;;;;5014063;28;20396;-62
2021/05/25 07:11:51;;;;;;;1.42;0.50;;;16.40;63.70;;;;;;5014142;28;20029;-63
2021/05/25 07:14:17;;;;;;;1.45;0.63;;;16.70;63.90;;;;;;5013681;28;20014;-63
2021/05/25 07:16:42;;;;;;;1.73;0.70;;;16.50;63.80;;;;;;5013918;28;20105;-63
2021/05/25 07:19:08;;;;;;;1.45;0.50;;;16.50;63.80;;;;;;5013866;28;20018;-64
2021/05/25 07:21:33;;;;;;;2.42;0.68;;;16.50;63.80;;;;;;5014081;28;20030;-62
2021/05/25 07:23:59;;;;;;;2.55;0.50;;;16.30;63.60;;;;;;5013795;28;20026;-62
2021/05/25 07:26:25;;;;;;;3.30;0.60;;;16.40;63.50;;;;;;5012488;28;20032;-62
2021/05/25 07:28:51;;;;;;;2.47;0.80;;;16.80;88.90;;;;;;5013706;28;20029;-63
2021/05/25 07:31:18;;;;;;;2.13;0.60;;;16.30;63.40;;;;;;5013742;28;20030;-63
2021/05/25 07:33:45;;;;;;;1.02;0.40;;;16.50;63.60;;;;;;5013449;28;20128;-63
2021/05/25 07:36:11;;;;;;;1.23;0.55;;;16.50;64.30;;;;;;5013447;28;20587;-63
2021/05/25 07:38:36;;;;;;;1.70;0.47;;;16.50;63.80;;;;;;5012273;28;20120;-63
2021/05/25 07:41:02;;;;;;;2.33;0.45;;;16.40;63.80;;;;;;5013462;28;20068;-63
2021/05/25 07:43:29;;;;;;;0.95;0.45;;;16.50;63.90;;;;;;5013351;28;20101;-63
2021/05/25 07:45:54;;;;;;;2.45;0.65;;;16.50;63.90;;;;;;5013677;28;20161;-63
2021/05/25 07:48:20;;;;;;;0.85;0.38;;;16.50;63.80;;;;;;5013587;28;20025;-63
2021/05/25 07:50:46;;;;;;;1.50;0.52;;;16.50;63.90;;;;;;5013455;28;20022;-63
2021/05/25 07:53:12;;;;;;;0.85;0.28;;;16.60;63.90;;;;;;5013535;28;20105;-64
2021/05/25 07:55:37;;;;;;;2.55;0.60;;;16.40;63.80;;;;;;5013244;28;20084;-63
2021/05/25 07:58:04;;;;;;;3.35;0.30;;;16.40;88.40;;;;;;5013163;28;20034;-63
2021/05/25 08:00:30;;;;;;;1.95;0.68;;;16.50;63.40;;;;;;5012077;28;20454;-63
2021/05/25 08:02:56;;;;;;;1.73;0.40;;;16.50;63.30;;;;;;5013262;28;20037;-63
2021/05/25 08:05:25;;;;;;;1.05;0.57;;;16.50;63.30;;;;;;5013126;28;20068;-64
2021/05/25 08:07:51;;;;;;;4.75;0.57;;;16.60;63.30;;;;;;5013071;28;20025;-63
2021/05/25 08:10:17;;;;;;;1.60;0.50;;;16.60;63.20;;;;;;5013070;28;20462;-63
2021/05/25 08:12:44;;;;;;;2.15;0.57;;;17.10;63.60;;;;;;5012969;28;20033;-63
2021/05/25 08:15:11;;;;;;;1.15;0.43;;;16.60;63.30;;;;;;5011733;28;20025;-63
2021/05/25 08:20:18;;;;;;;1.95;0.60;;;16.60;63.50;;;;;;5013546;28;20045;-63
2021/05/25 08:22:47;;;;;;;0.88;0.40;;;16.60;63.50;;;;;;5011689;28;20026;-63
2021/05/25 08:25:15;;;;;;;1.67;0.38;;;16.70;63.50;;;;;;5012953;28;20065;-63
2021/05/25 08:27:41;;;;;;;4.05;0.63;;;16.60;63.50;;;;;;5012862;28;20030;-63
2021/05/25 08:30:09;;;;;;;1.52;0.40;;;16.20;63.50;;;;;;5013084;28;20113;-62
2021/05/25 08:32:35;;;;;;;1.52;0.60;;;16.60;63.20;;;;;;5013020;28;20032;-63
2021/05/25 08:35:01;;;;;;;1.83;0.50;;;16.50;63.20;;;;;;5013080;28;20457;-63
2021/05/25 08:37:27;;;;;;;2.03;0.45;;;16.60;63.20;;;;;;5012736;28;20117;-63
2021/05/25 08:39:52;;;;;;;1.08;0.40;;;16.50;88.10;;;;;;5012716;28;20041;-63
2021/05/25 08:42:18;;;;;;;0.40;0.40;;;16.30;63.20;;;;;;5012763;28;20026;-63
2021/05/25 08:44:44;;;;;;;2.95;0.60;;;16.60;63.30;;;;;;5012863;28;20564;-63
2021/05/25 08:47:10;;;;;;;2.17;0.50;;;16.40;63.20;;;;;;5012652;28;20503;-63
2021/05/25 08:49:36;;;;;;;0.75;0.43;;;16.40;63.30;;;;;;5012625;28;20018;-64
2021/05/25 08:52:06;;;;;;;2.58;0.70;;;16.80;63.40;;;;;;5012626;28;20061;-63
2021/05/25 08:54:33;;;;;;;2.15;0.47;;;16.60;63.40;;;;;;5012543;28;20498;-63
2021/05/25 08:56:58;;;;;;;2.10;0.40;;;16.60;63.30;;;;;;5011252;28;20038;-62
2021/05/25 08:59:24;;;;;;;1.25;0.40;;;16.40;63.20;;;;;;5012416;28;20109;-61
2021/05/25 09:01:50;;;;;;;2.97;0.40;;;16.70;63.30;;;;;;5012376;28;20061;-62
2021/05/25 09:04:17;;;;;;;1.42;0.50;;;16.70;63.40;;;;;;5012109;28;20387;-61
2021/05/25 09:06:45;;;;;;;2.92;0.50;;;16.70;63.40;;;;;;5012407;28;20432;-61
2021/05/25 09:09:16;;;;;;;3.63;0.65;;;16.60;63.20;;;;;;5012428;28;20109;-62
2021/05/25 09:12:07;;;;;;;1.10;0.65;;;16.70;63.30;;;;;;5012698;28;20112;-62
2021/05/25 09:14:33;;;;;;;2.03;0.90;;;16.70;63.10;;;;;;5012704;28;20473;-62
2021/05/25 09:17:18;;;;;;;1.70;0.63;;;16.70;63.00;;;;;;5010967;28;20033;-62
2021/05/25 09:19:45;;;;;;;1.13;0.60;;;17.50;63.50;;;;;;5012324;28;20018;-61
2021/05/25 09:22:26;;;;;;;2.47;0.55;;;16.70;62.90;;;;;;5010991;28;20032;-62
2021/05/25 09:24:53;;;;;;;2.33;0.95;;;16.80;62.90;;;;;;5012279;28;20121;-62
2021/05/25 09:27:32;;;;;;;4.07;0.77;;;16.60;62.70;;;;;;5012518;28;20424;-62
2021/05/25 09:30:21;;;;;;;1.45;0.50;;;16.80;62.70;;;;;;5012236;28;20030;-62
2021/05/25 09:33:05;;;;;;;2.00;0.53;;;16.90;62.60;;;;;;5012259;28;20471;-62
2021/05/25 09:35:33;;;;;;;1.77;0.70;;;17.00;62.70;;;;;;5011962;28;20035;-62
2021/05/25 09:38:20;;;;;;;1.77;0.50;;;17.00;62.60;;;;;;5015920;28;20037;-62
2021/05/25 09:40:48;;;;;;;4.07;0.60;;;16.90;62.40;;;;;;5013601;28;20067;-62
2021/05/25 09:43:22;;;;;;;1.38;0.65;;;17.10;62.30;;;;;;5015709;28;20157;-62
2021/05/25 09:45:58;;;;;;;1.02;0.65;;;17.20;62.30;;;;;;5015554;28;20022;-62
2021/05/25 09:48:25;;;;;;;2.15;0.50;;;17.20;62.00;;;;;;5015816;28;20021;-62
2021/05/25 09:50:53;;;;;;;1.15;0.40;;;17.20;62.00;;;;;;5015739;28;20026;-62
2021/05/25 09:53:23;;;;;;;2.28;0.60;;;17.20;61.90;;;;;;5015384;28;20025;-62
2021/05/25 09:56:01;;;;;;;3.50;0.57;;;17.20;61.80;;;;;;5015540;28;20034;-62
2021/05/25 09:58:32;;;;;;;2.90;0.65;;;17.20;61.80;;;;;;5015508;28;20497;-62
2021/05/25 10:01:02;;;;;;;1.85;0.47;;;17.00;61.70;;;;;;5015574;28;20168;-62
2021/05/25 10:03:29;;;;;;;6.25;0.95;;;17.30;61.80;;;;;;5015092;28;20046;-62
2021/05/25 10:06:01;;;;;;;2.35;0.70;;;17.20;61.60;;;;;;5014981;28;20137;-62
2021/05/25 10:08:28;;;;;;;1.35;0.75;;;17.30;61.70;;;;;;5014672;28;20018;-62
2021/05/25 10:10:56;;;;;;;1.00;0.47;;;17.40;61.80;;;;;;5015357;28;20029;-62
2021/05/25 10:13:23;;;;;;;1.05;0.47;;;17.10;61.50;;;;;;5015170;28;20033;-62
2021/05/25 10:15:51;;;;;;;2.47;0.65;;;17.40;61.60;;;;;;5014995;28;20030;-62
2021/05/25 10:20:44;;;;;;;1.65;0.60;;;17.60;61.70;;;;;;5015245;28;20030;-62
2021/05/25 10:23:10;;;;;;;2.88;0.88;;;17.50;61.60;;;;;;5013625;28;20108;-62
2021/05/25 10:25:39;;;;;;;2.10;0.70;;;17.40;61.50;;;;;;5014889;28;20061;-62
2021/05/25 10:28:11;;;;;;;1.42;0.60;;;17.40;61.50;;;;;;5014939;28;20017;-62
2021/05/25 10:30:44;;;;;;;1.65;0.60;;;17.40;61.50;;;;;;5013630;28;20607;-62
2021/05/25 10:33:09;;;;;;;1.58;0.70;;;17.40;61.30;;;;;;5014821;28;20038;-62
2021/05/25 10:35:59;;;;;;;5.35;0.70;;;17.50;61.40;;;;;;5014565;28;20482;-62
2021/05/25 10:38:52;;;;;;;1.70;0.65;;;17.50;61.20;;;;;;5014602;28;20499;-62
2021/05/25 10:41:28;;;;;;;2.38;0.60;;;17.50;61.10;;;;;;5014835;28;20022;-62
2021/05/25 10:43:55;;;;;;;1.73;0.73;;;17.60;61.70;;;;;;5014456;28;20033;-62
2021/05/25 10:46:24;;;;;;;1.75;0.60;;;17.40;60.90;;;;;;5014467;28;20041;-62
2021/05/25 10:51:49;;;;;;;1.48;0.60;;;17.60;60.70;;;;;;5014340;28;20397;-64
2021/05/25 10:54:34;;;;;;;2.03;0.50;;;17.60;60.60;;;;;;5014475;28;20120;-64
2021/05/25 10:57:04;;;;;;;1.80;0.75;;;17.40;60.50;;;;;;5014371;28;20092;-64
2021/05/25 10:59:48;;;;;;;;;;;17.50;60.50;;;;;;5014611;28;20014;-64
2021/05/25 11:02:14;;;;;;;1.95;0.55;;;17.60;60.50;;;;;;5014221;28;19931;-63
2021/05/25 11:04:40;;;;;;;2.72;0.60;;;17.60;85.60;;;;;;5013929;28;20049;-64
2021/05/25 11:07:37;;;;;;;1.30;0.50;;;18.20;60.90;;;;;;5012862;28;20469;-64
2021/05/25 11:10:27;;;;;;;1.98;0.40;;;17.60;60.60;;;;;;5014288;28;20481;-63
2021/05/25 11:13:25;;;;;;;0.57;0.22;;;17.60;60.60;;;;;;5013945;28;20022;-64
2021/05/25 11:16:13;;;;;;;1.58;0.60;;;18.00;60.80;;;;;;5012594;28;20030;-64
2021/05/25 11:24:43;;;;;;;1.27;0.50;;;17.70;60.30;;;;;;5014190;28;20037;-64
2021/05/25 11:27:26;;;;;;;2.75;0.70;;;17.70;60.30;;;;;;5012537;28;20026;-63
2021/05/25 11:29:56;;;;;;;1.08;0.60;;;18.00;60.60;;;;;;5013604;28;20030;-64
2021/05/25 11:32:28;;;;;;;1.65;0.45;;;17.70;60.40;;;;;;5013881;28;20073;-63
2021/05/25 11:35:02;;;;;;;1.27;0.47;;;17.40;60.30;;;;;;5012389;28;20480;-64
2021/05/25 11:37:32;;;;;;;2.00;0.70;;;17.40;60.30;;;;;;5013410;28;20033;-64
2021/05/25 11:39:57;;;;;;;2.35;0.25;;;17.60;60.50;;;;;;5012189;28;20022;-64
2021/05/25 11:42:25;;;;;;;3.30;0.80;;;17.60;60.50;;;;;;5012121;28;20033;-64
2021/05/25 11:44:52;;;;;;;1.48;0.50;;;17.50;60.40;;;;;;5013379;28;20049;-64
2021/05/25 11:47:18;;;;;;;1.85;0.45;;;17.60;60.50;;;;;;5013305;28;20480;-63
2021/05/25 11:49:44;;;;;;;1.23;0.55;;;17.30;60.40;;;;;;5013439;28;20028;-63
2021/05/25 11:52:34;;;;;;;1.63;0.70;;;17.60;60.70;;;;;;5012128;28;20117;-64
2021/05/25 11:55:12;;;;;;;1.23;0.60;;;17.50;60.60;;;;;;5013244;28;20037;-63
2021/05/25 11:57:43;;;;;;;1.40;0.30;;;17.50;60.70;;;;;;5013059;28;20041;-63
2021/05/25 12:00:17;;;;;;;0.95;0.50;;;17.60;60.90;;;;;;5012769;28;20054;-64
2021/05/25 12:02:48;;;;;;;0.85;0.40;;;17.50;60.80;;;;;;5013532;28;20086;-63
2021/05/25 12:05:21;;;;;;;0.77;0.40;;;17.60;60.90;;;;;;5013117;28;20045;-64
2021/05/25 12:07:51;;;;;;;2.05;0.60;;;17.50;60.90;;;;;;5013132;28;20018;-64
2021/05/25 12:10:22;;;;;;;2.45;0.50;;;17.40;60.80;;;;;;5012012;28;20034;-63
2021/05/25 12:12:49;;;;;;;0.98;0.52;;;17.30;60.90;;;;;;5012993;28;20308;-64
2021/05/25 12:15:24;;;;;;;1.58;0.68;;;17.20;60.80;;;;;;5013034;28;20050;-64
2021/05/25 12:17:55;;;;;;;2.75;0.30;;;17.40;61.00;;;;;;5012819;28;20033;-64
2021/05/25 12:20:24;;;;;;;1.00;0.43;;;17.40;60.90;;;;;;5013047;28;20068;-64
2021/05/25 12:22:54;;;;;;;1.23;0.40;;;17.10;60.80;;;;;;5012979;28;20037;-64
2021/05/25 12:25:20;;;;;;;0.98;0.20;;;17.20;60.90;;;;;;5012997;28;20100;-64
2021/05/25 12:28:01;;;;;;;1.50;0.40;;;17.40;61.00;;;;;;5012917;28;20038;-63
2021/05/25 12:30:27;;;;;;;0.77;0.32;;;17.40;61.00;;;;;;5012829;28;20034;-63
2021/05/25 12:32:53;;;;;;;2.75;0.70;;;17.30;61.00;;;;;;5012831;28;20388;-64
2021/05/25 12:35:24;;;;;;;2.03;0.57;;;17.40;61.00;;;;;;5011517;28;20022;-64
2021/05/25 12:38:05;;;;;;;1.05;0.30;;;17.40;61.10;;;;;;5011439;28;20109;-64
2021/05/25 12:40:31;;;;;;;1.45;0.50;;;17.40;61.00;;;;;;5012665;28;20029;-64
2021/05/25 12:42:57;;;;;;;3.58;0.50;;;17.40;60.80;;;;;;5012741;28;20065;-63
2021/05/25 12:45:26;;;;;;;1.02;0.50;;;17.50;60.90;;;;;;5012743;28;20064;-64
2021/05/25 12:47:55;;;;;;;1.35;0.52;;;17.40;60.70;;;;;;5012684;28;20109;-64
2021/05/25 12:50:41;;;;;;;1.25;0.47;;;17.40;60.70;;;;;;5011602;28;20045;-62
2021/05/25 12:53:17;;;;;;;1.40;0.55;;;17.60;60.60;;;;;;5012558;28;20022;-62
2021/05/25 12:55:52;;;;;;;1.70;0.85;;;17.50;60.50;;;;;;5012393;28;20028;-62
2021/05/25 12:58:44;;;;;;;0.80;0.40;;;17.50;60.50;;;;;;5012433;28;20061;-62
2021/05/25 13:01:41;;;;;;;2.53;0.68;;;17.50;60.40;;;;;;5012657;28;20026;-63
2021/05/25 13:04:07;;;;;;;1.80;0.55;;;17.60;60.40;;;;;;5012356;28;20120;-64
2021/05/25 13:06:48;;;;;;;0.50;0.28;;;17.40;60.30;;;;;;5013179;28;20072;-63
2021/05/25 13:09:29;;;;;;;3.42;0.60;;;17.60;60.50;;;;;;5012848;28;20026;-62